createdAt,value
2023-04-12T00:02:47.337Z,40.65
2023-04-12T00:05:55.198Z,24.50
2023-04-12T00:09:01.583Z,30.63
2023-04-12T00:12:06.537Z,29.85
2023-04-12T00:15:11.709Z,32.03
2023-04-12T00:18:16.066Z,37.53
2023-04-12T00:21:20.205Z,26.08
2023-04-12T00:24:26.332Z,28.80
2023-04-12T00:27:30.623Z,28.98
2023-04-12T00:30:35.067Z,35.17
2023-04-12T00:33:39.302Z,28.38
2023-04-12T00:36:43.460Z,22.35
2023-04-12T00:39:49.243Z,34.50
2023-04-12T00:42:53.690Z,29.35
2023-04-12T00:45:58.422Z,29.23
2023-04-12T00:49:03.164Z,37.97
2023-04-12T00:52:15.632Z,36.17
2023-04-12T00:55:20.174Z,31.20
2023-04-12T00:58:25.019Z,33.67
2023-04-12T01:01:29.429Z,35.17
2023-04-12T01:04:34.443Z,38.42
2023-04-12T01:08:14.960Z,36.05
2023-04-12T01:11:38.601Z,38.88
2023-04-12T01:14:54.451Z,32.90
2023-04-12T01:18:17.653Z,31.42
2023-04-12T01:21:41.242Z,30.88
2023-04-12T01:24:55.989Z,35.03
2023-04-12T01:28:04.446Z,29.02
2023-04-12T01:31:09.373Z,25.67
2023-04-12T01:34:15.994Z,26.45
2023-04-12T01:37:22.742Z,29.02
2023-04-12T01:40:31.082Z,27.77
2023-04-12T01:43:44.181Z,31.35
2023-04-12T01:46:49.564Z,25.25
2023-04-12T01:50:43.982Z,24.88
2023-04-12T01:54:01.214Z,28.00
2023-04-12T01:57:08.545Z,28.75
2023-04-12T02:00:14.212Z,25.42
2023-04-12T02:03:24.060Z,26.45
2023-04-12T02:06:29.083Z,27.60
2023-04-12T02:09:39.813Z,23.25
2023-04-12T02:12:44.352Z,19.63
2023-04-12T02:15:49.029Z,28.00
2023-04-12T02:18:53.593Z,33.78
2023-04-12T02:21:57.804Z,23.88
2023-04-12T02:25:02.280Z,24.45
2023-04-12T02:28:06.956Z,21.75
2023-04-12T02:31:12.146Z,27.25
2023-04-12T02:34:18.022Z,21.48
2023-04-12T02:37:23.998Z,24.67
2023-04-12T02:40:28.485Z,14.25
2023-04-12T02:43:33.527Z,13.05
2023-04-12T02:46:37.983Z,13.70
2023-04-12T02:49:42.937Z,15.95
2023-04-12T02:52:47.792Z,18.13
2023-04-12T02:55:52.028Z,19.98
2023-04-12T03:02:00.557Z,16.30
2023-04-12T03:05:07.453Z,14.32
2023-04-12T03:08:11.706Z,14.93
2023-04-12T03:11:16.288Z,15.85
2023-04-12T03:14:20.507Z,10.27
2023-04-12T03:23:34.090Z,11.10
2023-04-12T03:26:38.542Z,14.07
2023-04-12T03:30:25.141Z,14.63
2023-04-12T03:33:29.791Z,7.35
2023-04-12T03:36:34.074Z,12.00
2023-04-12T03:39:38.334Z,7.80
2023-04-12T03:42:42.527Z,7.95
2023-04-12T03:45:46.620Z,13.25
2023-04-12T03:48:52.113Z,13.50
2023-04-12T03:51:57.207Z,11.57
2023-04-12T03:55:02.100Z,9.20
2023-04-12T03:58:06.700Z,10.10
2023-04-12T04:01:13.762Z,9.55
2023-04-12T04:04:18.428Z,8.88
2023-04-12T04:07:22.833Z,7.43
2023-04-12T04:10:28.557Z,8.85
2023-04-12T04:13:32.755Z,11.00
2023-04-12T04:16:37.221Z,9.30
2023-04-12T04:19:41.848Z,10.20
2023-04-12T04:25:53.782Z,11.35
2023-04-12T04:29:01.758Z,10.80
2023-04-12T04:32:07.608Z,11.40
2023-04-12T04:35:12.362Z,11.63
2023-04-12T04:38:17.055Z,12.45
2023-04-12T04:41:22.817Z,9.77
2023-04-12T04:44:27.172Z,13.60
2023-04-12T04:50:35.541Z,10.30
2023-04-12T04:53:40.790Z,7.93
2023-04-12T04:56:45.087Z,9.60
2023-04-12T04:59:49.472Z,8.70
2023-04-12T05:02:53.675Z,7.25
2023-04-12T05:05:58.023Z,9.75
2023-04-12T05:09:02.333Z,12.75
2023-04-12T05:12:06.950Z,12.13
2023-04-12T05:15:12.413Z,10.93
2023-04-12T05:18:18.099Z,8.13
2023-04-12T05:21:24.275Z,8.02
2023-04-12T05:24:28.788Z,4.72
2023-04-12T05:27:33.071Z,10.32
2023-04-12T05:30:40.005Z,8.75
2023-04-12T05:33:45.007Z,11.13
2023-04-12T05:36:49.630Z,9.45
2023-04-12T05:39:53.824Z,10.07
2023-04-12T05:46:02.267Z,8.75
2023-04-12T05:49:06.654Z,7.32
2023-04-12T05:52:11.344Z,5.30
2023-04-12T05:55:17.439Z,6.30
2023-04-12T05:58:22.197Z,6.47
2023-04-12T06:01:32.374Z,5.13
2023-04-12T06:04:50.075Z,9.23
2023-04-12T06:07:55.341Z,8.00
2023-04-12T06:10:59.723Z,10.23
2023-04-12T06:14:04.160Z,8.45
2023-04-12T06:17:08.402Z,9.23
2023-04-12T06:20:13.163Z,3.28
2023-04-12T06:23:19.231Z,6.95
2023-04-12T06:26:23.769Z,3.75
2023-04-12T06:29:27.996Z,10.02
2023-04-12T06:32:32.459Z,3.60
2023-04-12T06:35:36.740Z,4.65
2023-04-12T06:38:40.993Z,7.47
2023-04-12T06:41:47.391Z,7.03
2023-04-12T06:44:51.982Z,13.10
2023-04-12T06:47:57.051Z,6.55
2023-04-12T06:51:01.784Z,6.93
2023-04-12T06:54:06.226Z,4.35
2023-04-12T06:57:11.508Z,7.57
2023-04-12T07:00:16.376Z,8.93
2023-04-12T07:03:21.002Z,6.45
2023-04-12T07:06:26.406Z,8.45
2023-04-12T07:09:32.458Z,5.80
2023-04-12T07:12:36.767Z,9.70
2023-04-12T07:15:40.899Z,5.32
2023-04-12T07:18:45.526Z,9.20
2023-04-12T07:21:49.979Z,6.63
2023-04-12T07:24:54.621Z,10.10
2023-04-12T07:27:59.073Z,4.53
2023-04-12T07:31:07.645Z,6.78
2023-04-12T07:34:12.538Z,8.45
2023-04-12T07:37:18.013Z,7.75
2023-04-12T07:40:22.545Z,7.10
2023-04-12T07:43:27.034Z,7.07
2023-04-12T07:46:31.838Z,6.28
2023-04-12T07:49:36.075Z,5.63
2023-04-12T07:52:40.713Z,5.88
2023-04-12T07:55:45.436Z,4.55
2023-04-12T07:58:50.068Z,6.53
2023-04-12T08:02:03.499Z,8.20
2023-04-12T08:05:08.841Z,8.85
2023-04-12T08:08:13.076Z,8.02
2023-04-12T08:11:17.276Z,6.40
2023-04-12T08:14:21.643Z,6.72
2023-04-12T08:17:28.617Z,9.20
2023-04-12T08:20:33.468Z,5.78
2023-04-12T08:23:38.182Z,8.65
2023-04-12T08:26:42.745Z,5.15
2023-04-12T08:29:47.071Z,5.85
2023-04-12T08:32:51.371Z,7.68
2023-04-12T08:35:55.663Z,8.90
2023-04-12T08:39:01.471Z,6.88
2023-04-12T08:42:06.337Z,6.57
2023-04-12T08:45:12.210Z,5.85
2023-04-12T08:48:18.095Z,9.23
2023-04-12T08:51:22.800Z,5.30
2023-04-12T08:54:28.955Z,6.80
2023-04-12T08:57:39.743Z,6.50
2023-04-12T09:00:46.264Z,7.30
2023-04-12T09:03:50.755Z,6.03
2023-04-12T09:06:56.266Z,5.53
2023-04-12T09:10:00.750Z,7.60
2023-04-12T09:13:06.351Z,7.30
2023-04-12T09:16:11.041Z,5.68
2023-04-12T09:19:16.155Z,7.00
2023-04-12T09:22:36.941Z,7.13
2023-04-12T09:25:45.721Z,6.18
2023-04-12T09:28:50.536Z,4.72
2023-04-12T09:32:03.748Z,7.28
2023-04-12T09:35:09.105Z,8.45
2023-04-12T09:38:14.897Z,5.20
2023-04-12T09:41:27.270Z,4.97
2023-04-12T09:44:31.949Z,5.82
2023-04-12T09:47:41.007Z,4.38
2023-04-12T09:50:46.174Z,5.47
2023-04-12T09:53:51.952Z,5.60
2023-04-12T09:56:57.549Z,12.07
2023-04-12T10:00:05.547Z,5.47
2023-04-12T10:03:10.196Z,9.32
2023-04-12T10:06:15.877Z,5.43
2023-04-12T10:09:20.155Z,7.65
2023-04-12T10:12:27.752Z,6.45
2023-04-12T10:15:34.767Z,7.47
2023-04-12T10:18:40.055Z,6.68
2023-04-12T10:21:44.407Z,7.82
2023-04-12T10:24:49.216Z,6.50
2023-04-12T10:27:57.277Z,8.13
2023-04-12T10:31:30.600Z,11.10
2023-04-12T10:34:36.037Z,7.15
2023-04-12T10:38:04.398Z,13.23
2023-04-12T10:41:20.628Z,8.85
2023-04-12T10:44:28.938Z,6.35
2023-04-12T10:47:48.819Z,7.65
2023-04-12T10:51:16.159Z,10.45
2023-04-12T10:54:20.399Z,9.35
2023-04-12T10:57:45.328Z,9.18
2023-04-12T11:01:10.577Z,16.65
2023-04-12T11:04:21.890Z,10.48
2023-04-12T11:07:43.240Z,15.13
2023-04-12T11:10:47.441Z,11.80
2023-04-12T11:13:56.977Z,10.23
2023-04-12T11:17:16.771Z,11.00
2023-04-12T11:20:21.915Z,11.10
2023-04-12T11:23:27.171Z,11.82
2023-04-12T11:26:31.933Z,10.48
2023-04-12T11:29:36.624Z,11.10
2023-04-12T11:32:44.491Z,7.45
2023-04-12T11:35:48.916Z,12.90
2023-04-12T11:38:55.847Z,8.23
2023-04-12T11:42:03.281Z,5.32
2023-04-12T11:45:15.862Z,16.75
2023-04-12T11:51:30.797Z,8.95
2023-04-12T11:54:37.036Z,9.52
2023-04-12T12:00:46.472Z,12.43
2023-04-12T12:03:51.702Z,9.05
2023-04-12T12:06:59.201Z,7.82
2023-04-12T12:10:05.869Z,12.38
2023-04-12T12:13:14.891Z,7.50
2023-04-12T12:16:25.469Z,7.43
2023-04-12T12:19:37.724Z,10.02
2023-04-12T12:22:46.911Z,10.38
2023-04-12T12:25:51.595Z,7.25
2023-04-12T12:29:00.042Z,12.40
2023-04-12T12:32:13.779Z,5.57
2023-04-12T12:35:19.412Z,6.32
2023-04-12T12:38:31.433Z,6.35
2023-04-12T12:41:37.935Z,5.95
2023-04-12T12:44:42.504Z,7.70
2023-04-12T12:48:03.343Z,6.88
2023-04-12T12:51:12.918Z,4.40
2023-04-12T12:54:31.793Z,6.28
2023-04-12T12:57:55.099Z,5.60
2023-04-12T13:01:10.248Z,6.57
2023-04-12T13:04:14.611Z,8.80
2023-04-12T13:07:19.319Z,5.88
2023-04-12T13:10:23.919Z,7.30
2023-04-12T13:13:28.440Z,4.20
2023-04-12T13:16:32.715Z,5.95
2023-04-12T13:19:37.571Z,6.18
2023-04-12T13:22:42.081Z,4.80
2023-04-12T13:28:50.548Z,4.32
2023-04-12T13:31:55.393Z,7.78
2023-04-12T13:34:59.798Z,8.85
2023-04-12T13:38:04.269Z,8.02
2023-04-12T13:41:08.767Z,9.70
2023-04-12T13:44:13.425Z,7.78
2023-04-12T13:47:20.508Z,8.35
2023-04-12T13:50:24.715Z,7.47
2023-04-12T13:53:30.903Z,12.55
2023-04-12T13:56:35.095Z,9.98
2023-04-12T13:59:39.518Z,8.52
2023-04-12T14:02:44.059Z,8.55
2023-04-12T14:05:48.344Z,9.90
2023-04-12T14:08:52.756Z,12.90
2023-04-12T14:11:59.357Z,9.40
2023-04-12T14:15:05.834Z,11.00
2023-04-12T14:18:10.013Z,10.75
2023-04-12T14:21:14.439Z,12.80
2023-04-12T14:24:20.313Z,13.27
2023-04-12T14:27:24.481Z,12.23
2023-04-12T14:30:28.819Z,10.70
2023-04-12T14:33:33.154Z,11.90
2023-04-12T14:36:41.975Z,11.75
2023-04-12T14:39:46.836Z,11.60
2023-04-12T14:42:51.256Z,14.70
2023-04-12T14:45:55.582Z,12.63
2023-04-12T14:49:03.304Z,12.15
2023-04-12T14:52:08.140Z,12.80
2023-04-12T14:55:12.428Z,10.27
2023-04-12T14:58:17.488Z,11.13
2023-04-12T15:01:23.752Z,14.07
2023-04-12T15:04:28.430Z,11.70
2023-04-12T15:07:33.982Z,15.00
2023-04-12T15:10:38.490Z,12.38
2023-04-12T15:13:44.358Z,11.00
2023-04-12T15:16:49.394Z,14.70
2023-04-12T15:19:53.966Z,16.63
2023-04-12T15:22:58.625Z,13.13
2023-04-12T15:26:06.660Z,13.27
2023-04-12T15:29:10.984Z,10.43
2023-04-12T15:32:15.167Z,12.20
2023-04-12T15:35:26.623Z,10.98
2023-04-12T15:38:40.750Z,15.05
2023-04-12T15:41:46.208Z,13.18
2023-04-12T15:44:50.440Z,14.30
2023-04-12T15:47:55.377Z,11.88
2023-04-12T15:51:00.180Z,12.75
2023-04-12T15:54:05.192Z,14.32
2023-04-12T15:57:11.507Z,11.82
2023-04-12T16:00:26.847Z,11.13
2023-04-12T16:03:31.681Z,12.23
2023-04-12T16:06:38.029Z,11.68
2023-04-12T16:09:42.778Z,15.73
2023-04-12T16:12:52.635Z,15.23
2023-04-12T16:15:57.150Z,12.55
2023-04-12T16:19:03.622Z,13.15
2023-04-12T16:22:08.103Z,16.17
2023-04-12T16:25:12.862Z,14.50
2023-04-12T16:28:18.125Z,14.70
2023-04-12T16:31:22.875Z,15.32
2023-04-12T16:34:27.282Z,17.50
2023-04-12T16:37:31.991Z,16.33
2023-04-12T16:40:36.395Z,21.15
2023-04-12T16:43:43.326Z,17.50
2023-04-12T16:46:49.263Z,17.63
2023-04-12T16:49:53.609Z,18.55
2023-04-12T16:52:57.755Z,19.33
2023-04-12T16:56:03.013Z,16.00
2023-04-12T16:59:09.561Z,16.42
2023-04-12T17:02:14.521Z,17.95
2023-04-12T17:05:21.168Z,16.20
2023-04-12T17:08:25.887Z,15.73
2023-04-12T17:11:30.266Z,20.95
2023-04-12T17:14:34.436Z,16.80
2023-04-12T17:17:38.945Z,16.48
2023-04-12T17:20:43.967Z,18.90
2023-04-12T17:23:49.341Z,17.63
2023-04-12T17:26:54.064Z,21.38
2023-04-12T17:29:58.616Z,18.80
2023-04-12T17:33:03.426Z,17.10
2023-04-12T17:36:11.394Z,20.75
2023-04-12T17:39:16.644Z,15.90
2023-04-12T17:42:22.465Z,18.50
2023-04-12T17:45:26.936Z,19.42
2023-04-12T17:48:31.946Z,16.13
2023-04-12T17:51:36.417Z,19.95
2023-04-12T17:54:41.343Z,19.13
2023-04-12T17:57:46.002Z,19.95
2023-04-12T18:00:50.350Z,22.80
2023-04-12T18:03:54.951Z,22.35
2023-04-12T18:06:59.949Z,19.95
2023-04-12T18:10:05.342Z,18.27
2023-04-12T18:13:09.696Z,25.75
2023-04-12T18:16:14.056Z,19.08
2023-04-12T18:19:19.147Z,25.52
2023-04-12T18:22:23.895Z,22.27
2023-04-12T18:25:28.169Z,27.67
2023-04-12T18:28:32.348Z,26.83
2023-04-12T18:31:39.703Z,27.50
2023-04-12T18:34:44.338Z,32.70
2023-04-12T18:37:48.644Z,31.35
2023-04-12T18:40:52.981Z,29.92
2023-04-12T18:43:57.582Z,35.97
2023-04-12T18:47:02.932Z,26.85
2023-04-12T18:50:08.689Z,28.60
2023-04-12T18:53:13.278Z,26.92
2023-04-12T18:56:23.092Z,27.90
2023-04-12T18:59:27.783Z,32.92
2023-04-12T19:02:34.344Z,20.67
2023-04-12T19:05:39.344Z,26.67
2023-04-12T19:08:43.951Z,17.33
2023-04-12T19:11:48.716Z,11.20
2023-04-12T19:14:52.874Z,13.40
2023-04-12T19:17:58.308Z,10.93
2023-04-12T19:21:05.260Z,10.70
2023-04-12T19:24:09.801Z,17.15
2023-04-12T19:27:14.467Z,12.85
2023-04-12T19:30:19.117Z,13.93
2023-04-12T19:33:24.716Z,11.18
2023-04-12T19:36:29.622Z,10.02
2023-04-12T19:39:34.155Z,8.35
2023-04-12T19:42:41.535Z,7.22
2023-04-12T19:45:46.238Z,12.45
2023-04-12T19:48:51.324Z,6.70
2023-04-12T19:51:56.263Z,5.65
2023-04-12T19:55:01.925Z,5.47
2023-04-12T19:58:06.720Z,6.75
2023-04-12T20:01:11.932Z,7.63
2023-04-12T20:04:21.617Z,8.25
2023-04-12T20:07:26.252Z,10.40
2023-04-12T20:10:30.694Z,12.30
2023-04-12T20:13:36.272Z,14.70
2023-04-12T20:16:42.738Z,26.50
2023-04-12T20:19:47.732Z,35.80
2023-04-12T20:22:52.086Z,38.83
2023-04-12T20:25:57.466Z,41.17
2023-04-12T20:29:06.592Z,38.00
2023-04-12T20:32:14.291Z,47.28
2023-04-12T20:35:18.735Z,46.72
2023-04-12T20:38:23.165Z,54.50
2023-04-12T20:41:28.082Z,40.97
2023-04-12T20:44:33.137Z,50.08
2023-04-12T20:47:38.030Z,34.58
2023-04-12T20:50:42.695Z,28.45
2023-04-12T20:53:47.288Z,31.70
2023-04-12T20:56:52.685Z,30.13
2023-04-12T20:59:57.212Z,25.13
2023-04-12T21:03:04.644Z,25.30
2023-04-12T21:06:10.919Z,29.13
2023-04-12T21:09:17.076Z,35.67
2023-04-12T21:12:21.264Z,35.38
2023-04-12T21:15:25.489Z,32.17
2023-04-12T21:18:32.250Z,35.75
2023-04-12T21:21:36.984Z,29.85
2023-04-12T21:24:41.708Z,29.85
2023-04-12T21:27:47.107Z,34.80
2023-04-12T21:30:55.212Z,38.08
2023-04-12T21:34:00.087Z,39.13
2023-04-12T21:37:05.398Z,37.33
2023-04-12T21:40:10.681Z,48.63
2023-04-12T21:43:15.651Z,32.92
2023-04-12T21:46:20.731Z,36.92
2023-04-12T21:49:25.294Z,33.47
2023-04-12T21:52:29.890Z,32.80
2023-04-12T21:55:33.986Z,36.80
2023-04-12T21:58:38.027Z,40.83
2023-04-12T22:01:42.473Z,33.55
2023-04-12T22:04:46.856Z,38.25
2023-04-12T22:07:51.188Z,41.35
2023-04-12T22:13:59.640Z,47.35
2023-04-12T22:17:05.989Z,47.63
2023-04-12T22:20:10.977Z,46.13
2023-04-12T22:23:18.042Z,42.70
2023-04-12T22:26:22.706Z,51.63
2023-04-12T22:29:26.943Z,45.25
2023-04-12T22:32:32.987Z,41.17
2023-04-12T22:35:37.595Z,46.80
2023-04-12T22:38:42.075Z,34.63
2023-04-12T22:41:49.106Z,34.30
2023-04-12T22:44:54.283Z,35.22
2023-04-12T22:47:58.828Z,35.10
2023-04-12T22:51:03.608Z,36.78
2023-04-12T22:54:09.593Z,40.42
2023-04-12T22:57:13.967Z,29.77
2023-04-12T23:00:18.283Z,30.45
2023-04-12T23:03:23.225Z,28.98
2023-04-12T23:06:27.746Z,26.63
2023-04-12T23:09:33.440Z,27.75
2023-04-12T23:12:38.897Z,35.50
2023-04-12T23:15:43.081Z,31.10
2023-04-12T23:18:48.238Z,27.20
2023-04-12T23:21:54.475Z,30.90
2023-04-12T23:25:01.600Z,24.90
2023-04-12T23:28:19.507Z,24.35
2023-04-12T23:31:23.949Z,24.02
2023-04-12T23:34:30.701Z,26.20
2023-04-12T23:37:35.997Z,36.65
2023-04-12T23:40:40.263Z,30.85
2023-04-12T23:43:44.632Z,27.40
2023-04-12T23:46:49.101Z,19.38
2023-04-12T23:49:53.447Z,31.58
2023-04-12T23:52:57.626Z,36.90
2023-04-12T23:56:01.805Z,27.73
2023-04-12T23:59:06.180Z,30.48
